CheckWX is a tool to help pilots better visualize weather data.  It is not intended as a substitute for an official pre-flight weather briefing.

08:12:51 UTC

KMIV TAF
Millville Municipal Airport
Millville, New Jersey, USA
KMIV 190520Z 1906/2006 VRB03KT P6SM SKC FM191600 35005KT P6SM SKC FM191800 26008KT P6SM SKC FM200000 VRB02KT P6SM SKC

Mar-19@
06:00 UTC

Mar-19 @ 06:00 UTC

Mar-19@
16:00 UTC

Mar-19 @ 16:00 UTC

KMIV 190520Z 1906/2006 VRB03KT P6SM SKC
Wind
  • Variable at 3 KTS
Cloud Levels
  • Clear skies

Mar-19@
16:00 UTC

Mar-19 @ 16:00 UTC

Mar-19@
18:00 UTC

Mar-19 @ 18:00 UTC

FM191600 35005KT P6SM SKC

From

From Standard forecast or significant change

Wind
  • 350° at 5 KTS
Cloud Levels
  • Clear skies

Mar-19@
18:00 UTC

Mar-19 @ 18:00 UTC

Mar-20@
00:00 UTC

Mar-20 @ 00:00 UTC

FM191800 26008KT P6SM SKC

From

From Standard forecast or significant change

Wind
  • 260° at 8 KTS
Cloud Levels
  • Clear skies

Mar-20@
00:00 UTC

Mar-20 @ 00:00 UTC

Mar-20@
06:00 UTC

Mar-20 @ 06:00 UTC

FM200000 VRB02KT P6SM SKC

From

From Standard forecast or significant change

Wind
  • Variable at 2 KTS
Cloud Levels
  • Clear skies